Time;durP1;ratioP1;P1;durP2;ratioP2;P2;SDS_P1;SDS_P2;PMS_P1;PMS_P2;Temp;Humidity;BMP_temperature;BMP_pressure;BME280_temperature;BME280_humidity;BME280_pressure;Samples;Min_cycle;Max_cycle;Signal;HPM_P1;HPM_P2
2020/12/25 00:02:27;;;;;;;0.88;0.68;;;;;;;6.10;63.51;99907.30;1743490;81;21629;-76
2020/12/25 00:04:55;;;;;;;1.65;0.90;;;;;;;6.20;63.52;99911.77;1743220;82;22192;-79
2020/12/25 00:07:23;;;;;;;1.30;0.78;;;;;;;6.66;62.42;99908.75;1743355;81;21168;-79
2020/12/25 00:09:50;;;;;;;0.80;0.80;;;;;;;6.28;63.29;99901.25;1742841;82;21213;-78
2020/12/25 00:12:18;;;;;;;1.20;0.85;;;;;;;6.22;63.50;99903.14;1743117;82;21189;-76
2020/12/25 00:14:46;;;;;;;1.37;1.10;;;;;;;6.25;63.60;99902.86;1743243;82;21173;-76
2020/12/25 00:17:14;;;;;;;1.45;1.00;;;;;;;6.26;63.60;99894.73;1743173;82;21791;-75
2020/12/25 00:19:41;;;;;;;0.60;0.60;;;;;;;6.29;63.60;99901.09;1743304;82;21716;-76
2020/12/25 00:22:09;;;;;;;0.75;0.70;;;;;;;6.30;63.61;99894.79;1743349;81;21360;-77
2020/12/25 00:24:37;;;;;;;2.08;1.10;;;;;;;6.34;63.60;99902.00;1712377;82;21573;-76
2020/12/25 00:27:05;;;;;;;3.12;1.17;;;;;;;6.33;63.64;99889.69;1743058;81;21184;-78
2020/12/25 00:29:33;;;;;;;0.78;0.75;;;;;;;6.34;63.68;99879.39;1743049;82;21331;-78
2020/12/25 00:32:01;;;;;;;0.70;0.70;;;;;;;6.37;63.67;99881.77;1742997;82;21201;-77
2020/12/25 00:34:29;;;;;;;0.62;0.60;;;;;;;6.39;63.72;99884.27;1743324;82;21125;-77
2020/12/25 00:36:57;;;;;;;1.00;0.88;;;;;;;6.36;63.76;99874.78;1743457;82;21034;-76
2020/12/25 00:39:24;;;;;;;1.60;0.90;;;;;;;6.32;63.87;99870.73;1743364;82;21568;-77
2020/12/25 00:41:52;;;;;;;0.98;0.88;;;;;;;6.34;63.96;99858.94;1743215;81;21458;-78
2020/12/25 00:44:20;;;;;;;1.95;0.80;;;;;;;6.36;63.97;99862.81;1743332;82;21189;-77
2020/12/25 00:46:47;;;;;;;2.10;1.20;;;;;;;6.41;63.95;99855.72;1743054;81;21186;-78
2020/12/25 00:49:17;;;;;;;0.98;0.88;;;;;;;6.88;62.87;99855.13;1743214;82;21162;-79
2020/12/25 00:51:47;;;;;;;1.10;0.82;;;;;;;7.00;62.49;99853.94;1743072;82;21182;-78
2020/12/25 00:54:16;;;;;;;0.80;0.80;;;;;;;7.06;62.30;99846.67;1742670;82;21873;-78
2020/12/25 00:56:45;;;;;;;1.00;0.90;;;;;;;7.08;62.15;99831.36;1742669;82;21540;-77
2020/12/25 00:59:16;;;;;;;1.55;1.20;;;;;;;7.07;62.09;99832.36;1776209;78;21229;-77
2020/12/25 01:01:44;;;;;;;0.85;0.80;;;;;;;7.08;62.06;99819.38;1795515;78;21516;-75
2020/12/25 01:04:14;;;;;;;1.05;0.70;;;;;;;7.11;62.00;99822.25;1787482;78;21184;-77
2020/12/25 01:06:42;;;;;;;0.93;0.80;;;;;;;7.12;62.00;99818.09;1779791;78;21374;-77
2020/12/25 01:09:11;;;;;;;0.78;0.62;;;;;;;7.17;62.00;99816.80;1769540;81;21189;-75
2020/12/25 01:11:40;;;;;;;0.93;0.90;;;;;;;6.76;62.92;99809.23;1769413;81;21364;-76
2020/12/25 01:14:08;;;;;;;1.47;0.95;;;;;;;6.68;63.27;99803.00;1769562;80;21525;-77
2020/12/25 01:16:36;;;;;;;1.47;1.20;;;;;;;6.68;63.38;99798.52;1769548;81;21126;-77
2020/12/25 01:19:03;;;;;;;0.78;0.72;;;;;;;6.72;63.47;99799.03;1769498;81;22687;-76
2020/12/25 01:21:32;;;;;;;0.78;0.60;;;;;;;6.75;63.49;99787.59;1769321;81;21169;-78
2020/12/25 01:23:59;;;;;;;0.62;0.60;;;;;;;6.76;63.56;99784.44;1769651;81;21118;-76
2020/12/25 01:26:28;;;;;;;1.25;0.88;;;;;;;6.75;63.58;99774.78;1769679;81;21209;-76
2020/12/25 01:29:03;;;;;;;1.52;0.98;;;;;;;6.73;63.72;99767.45;1770126;80;21544;-78
2020/12/25 01:31:31;;;;;;;0.70;0.70;;;;;;;6.73;63.82;99762.14;1770034;80;21635;-79
2020/12/25 01:33:59;;;;;;;0.75;0.75;;;;;;;6.76;63.88;99767.14;1769931;81;21553;-77
2020/12/25 01:36:27;;;;;;;1.12;0.88;;;;;;;6.79;63.87;99772.17;1769868;81;21481;-77
2020/12/25 01:38:55;;;;;;;0.80;0.80;;;;;;;6.81;63.90;99779.03;1769850;81;21209;-79
2020/12/25 01:41:23;;;;;;;0.78;0.78;;;;;;;6.87;63.90;99782.91;1770197;81;21098;-78
2020/12/25 01:43:51;;;;;;;1.30;1.00;;;;;;;6.89;63.85;99776.92;1769891;81;21213;-77
2020/12/25 01:46:18;;;;;;;0.50;0.50;;;;;;;6.85;63.91;99755.59;1770091;80;21681;-79
2020/12/25 01:48:46;;;;;;;0.68;0.68;;;;;;;6.82;64.08;99737.27;1769815;81;21537;-78
2020/12/25 01:51:14;;;;;;;1.12;0.70;;;;;;;6.79;64.20;99726.92;1769369;81;21229;-79
2020/12/25 01:53:42;;;;;;;0.60;0.60;;;;;;;6.77;64.34;99724.42;1769165;80;21197;-80
2020/12/25 01:56:12;;;;;;;1.20;0.88;;;;;;;6.75;64.46;99736.20;1769551;81;22659;-77
2020/12/25 01:58:39;;;;;;;0.80;0.65;;;;;;;6.75;64.60;99734.37;1769540;80;21441;-77
2020/12/25 02:01:08;;;;;;;1.32;0.95;;;;;;;6.79;64.70;99734.91;1770026;81;21158;-80
2020/12/25 02:03:37;;;;;;;1.00;0.70;;;;;;;6.81;64.71;99735.58;1769865;81;21150;-79
2020/12/25 02:06:05;;;;;;;0.53;0.53;;;;;;;6.82;64.81;99735.95;1770290;80;21137;-78
2020/12/25 02:08:33;;;;;;;0.55;0.50;;;;;;;6.81;64.96;99727.59;1769874;80;22137;-77
2020/12/25 02:11:01;;;;;;;0.98;0.70;;;;;;;6.81;65.10;99714.28;1769778;81;21221;-79
2020/12/25 02:13:30;;;;;;;0.65;0.60;;;;;;;6.80;65.20;99708.62;1770092;81;21162;-77
2020/12/25 02:15:58;;;;;;;1.15;0.57;;;;;;;6.78;65.29;99707.95;1769950;81;21173;-78
2020/12/25 02:18:36;;;;;;;2.72;0.88;;;;;;;6.75;65.44;99706.92;1769950;80;21062;-81
2020/12/25 02:21:04;;;;;;;0.50;0.50;;;;;;;6.71;65.68;99698.89;1769770;81;21377;-76
2020/12/25 02:23:32;;;;;;;1.90;0.60;;;;;;;6.70;65.87;99698.55;1770028;81;21146;-82
2020/12/25 02:26:00;;;;;;;1.05;0.65;;;;;;;6.73;65.85;99693.77;1769930;81;21151;-82
2020/12/25 02:28:28;;;;;;;0.72;0.60;;;;;;;6.79;65.75;99693.65;1770128;80;21054;-78
2020/12/25 02:30:56;;;;;;;1.25;0.70;;;;;;;6.83;65.70;99695.86;1770088;81;21345;-79
2020/12/25 02:33:25;;;;;;;0.80;0.53;;;;;;;6.90;65.61;99705.38;1769848;81;21354;-81
2020/12/25 02:35:55;;;;;;;1.05;0.70;;;;;;;6.99;65.42;99703.13;1769836;79;21212;-82
2020/12/25 02:38:23;;;;;;;0.70;0.70;;;;;;;7.09;65.30;99703.91;1769582;80;21122;-86
2020/12/25 02:40:50;;;;;;;0.98;0.80;;;;;;;7.17;65.04;99702.28;1769781;81;21165;-84
2020/12/25 02:43:18;;;;;;;0.78;0.60;;;;;;;7.21;64.85;99694.33;1769849;81;21189;-80
2020/12/25 02:45:46;;;;;;;1.25;0.78;;;;;;;7.22;64.61;99693.33;1769422;81;22273;-77
2020/12/25 02:48:14;;;;;;;2.90;1.02;;;;;;;7.19;64.56;99694.98;1769830;81;21640;-82
2020/12/25 02:50:41;;;;;;;1.10;0.85;;;;;;;7.14;64.48;99682.64;1769757;81;21518;-83
2020/12/25 02:53:09;;;;;;;1.85;0.80;;;;;;;7.11;64.56;99687.76;1770152;81;21181;-78
2020/12/25 02:55:37;;;;;;;0.95;0.70;;;;;;;7.12;64.54;99689.42;1770288;81;21050;-79
2020/12/25 02:58:05;;;;;;;1.32;0.80;;;;;;;7.14;64.58;99699.95;1769923;81;22361;-78
2020/12/25 03:00:32;;;;;;;1.45;0.88;;;;;;;7.18;64.54;99692.83;1769830;80;21177;-78
2020/12/25 03:03:00;;;;;;;1.02;0.82;;;;;;;7.18;64.53;99687.99;1769795;81;21517;-78
2020/12/25 03:05:29;;;;;;;0.72;0.50;;;;;;;7.22;64.50;99684.86;1769075;81;21078;-77
2020/12/25 03:07:57;;;;;;;0.72;0.47;;;;;;;7.29;64.45;99683.23;1769862;80;21149;-77
2020/12/25 03:10:25;;;;;;;0.80;0.78;;;;;;;7.30;64.41;99688.89;1769994;81;21209;-77
2020/12/25 03:12:53;;;;;;;0.60;0.60;;;;;;;7.30;64.41;99688.06;1769576;80;21186;-78
2020/12/25 03:15:21;;;;;;;2.67;1.05;;;;;;;7.33;64.38;99683.27;1769890;81;21201;-78
2020/12/25 03:17:48;;;;;;;1.00;0.68;;;;;;;7.38;64.38;99690.78;1769523;80;21190;-78
2020/12/25 03:20:16;;;;;;;0.40;0.35;;;;;;;7.41;64.31;99689.65;1769889;81;21218;-81
2020/12/25 03:22:44;;;;;;;4.00;0.80;;;;;;;7.39;64.31;99692.45;1769723;80;21197;-78
2020/12/25 03:25:12;;;;;;;2.02;0.80;;;;;;;7.39;64.33;99696.45;1770060;81;21221;-79
2020/12/25 03:27:40;;;;;;;1.25;1.12;;;;;;;7.42;64.26;99692.15;1769986;81;21613;-77
2020/12/25 03:30:07;;;;;;;1.20;1.10;;;;;;;7.42;64.30;99687.32;1770046;81;21589;-79
2020/12/25 03:32:35;;;;;;;1.52;0.90;;;;;;;7.39;64.32;99692.45;1769911;81;21217;-80
2020/12/25 03:35:04;;;;;;;0.72;0.62;;;;;;;7.38;64.38;99692.12;1770052;80;21627;-77
2020/12/25 03:37:31;;;;;;;0.70;0.60;;;;;;;7.39;64.41;99689.78;1769659;81;21011;-78
2020/12/25 03:39:59;;;;;;;0.90;0.62;;;;;;;7.34;64.52;99695.59;1769742;80;21447;-77
2020/12/25 03:42:27;;;;;;;0.60;0.60;;;;;;;7.32;64.61;99679.44;1770029;81;21058;-76
2020/12/25 03:44:54;;;;;;;0.53;0.53;;;;;;;7.32;64.62;99691.42;1769864;81;21639;-78
2020/12/25 03:47:24;;;;;;;1.55;0.90;;;;;;;7.31;64.69;99687.06;1770026;81;21190;-76
2020/12/25 03:49:53;;;;;;;0.65;0.57;;;;;;;7.30;64.75;99689.39;1771025;81;21165;-74
2020/12/25 03:52:21;;;;;;;1.27;0.70;;;;;;;7.27;64.86;99693.72;1776889;78;21142;-77
2020/12/25 03:54:49;;;;;;;0.80;0.60;;;;;;;7.25;64.86;99697.02;1807235;78;21130;-78
2020/12/25 03:57:17;;;;;;;2.65;1.90;;;;;;;7.27;64.94;99689.73;1818520;78;21161;-80
2020/12/25 03:59:45;;;;;;;0.80;0.78;;;;;;;7.30;64.98;99693.39;1758967;78;21619;-77
2020/12/25 04:02:13;;;;;;;1.25;0.80;;;;;;;7.33;64.99;99695.75;1747962;82;21678;-77
2020/12/25 04:04:41;;;;;;;1.52;0.82;;;;;;;7.37;65.05;99691.78;1747336;82;22008;-79
2020/12/25 04:07:08;;;;;;;2.72;0.93;;;;;;;7.43;64.99;99693.81;1747564;82;21197;-78
2020/12/25 04:09:37;;;;;;;0.85;0.80;;;;;;;7.47;64.97;99702.34;1764305;80;21166;-78
2020/12/25 04:12:05;;;;;;;0.70;0.70;;;;;;;7.50;64.88;99700.70;1782686;80;21205;-79
2020/12/25 04:14:33;;;;;;;2.65;0.80;;;;;;;7.50;64.89;99694.88;1784127;80;21176;-81
2020/12/25 04:17:00;;;;;;;0.30;0.30;;;;;;;7.57;64.80;99697.23;1784089;80;21193;-80
2020/12/25 04:19:28;;;;;;;2.58;0.62;;;;;;;7.69;64.66;99691.14;1784127;80;21165;-78
2020/12/25 04:21:56;;;;;;;0.70;0.70;;;;;;;7.72;64.47;99703.30;1784354;80;21680;-81
2020/12/25 04:24:24;;;;;;;1.95;0.72;;;;;;;7.71;64.39;99699.80;1783525;80;21373;-77
2020/12/25 04:26:52;;;;;;;0.85;0.70;;;;;;;7.69;64.32;99700.97;1784958;80;21177;-79
2020/12/25 04:29:20;;;;;;;1.47;1.10;;;;;;;7.72;64.34;99685.50;1784741;80;21157;-78
2020/12/25 04:31:48;;;;;;;2.37;0.75;;;;;;;7.77;64.21;99699.19;1784964;80;21173;-77
2020/12/25 04:34:16;;;;;;;1.12;1.02;;;;;;;7.79;64.09;99706.52;1784933;80;21196;-81
2020/12/25 04:36:43;;;;;;;1.22;1.00;;;;;;;7.82;64.06;99695.55;1784789;80;22320;-78
2020/12/25 04:39:12;;;;;;;1.57;1.10;;;;;;;7.91;63.94;99710.26;1784583;80;21523;-75
2020/12/25 04:41:40;;;;;;;2.80;1.42;;;;;;;7.97;63.71;99706.44;1784537;80;21371;-80
2020/12/25 04:44:08;;;;;;;2.30;1.40;;;;;;;8.00;63.59;99704.80;1780899;80;21569;-78
2020/12/25 04:46:36;;;;;;;3.42;1.52;;;;;;;8.02;63.47;99719.30;1750018;82;21181;-76
2020/12/25 04:49:04;;;;;;;10.53;4.85;;;;;;;8.00;63.45;99718.13;1754958;81;21439;-80
2020/12/25 04:51:31;;;;;;;10.85;4.75;;;;;;;8.03;63.33;99713.79;1718381;83;21196;-78
2020/12/25 04:53:59;;;;;;;14.33;5.62;;;;;;;8.03;63.32;99707.62;1787519;80;21149;-75
2020/12/25 04:56:27;;;;;;;8.95;3.15;;;;;;;8.08;63.27;99710.64;1785789;80;21161;-78
2020/12/25 04:58:55;;;;;;;11.90;4.37;;;;;;;8.11;63.23;99705.00;1786138;80;21646;-75
2020/12/25 05:01:23;;;;;;;11.20;5.83;;;;;;;8.21;63.09;99715.03;1752090;82;21803;-76
2020/12/25 05:03:50;;;;;;;8.68;4.50;;;;;;;8.29;62.90;99716.41;1726474;81;21193;-77
2020/12/25 05:06:19;;;;;;;11.97;5.08;;;;;;;8.33;62.80;99723.09;1753019;81;21715;-76
2020/12/25 05:08:49;;;;;;;9.75;3.90;;;;;;;8.39;62.64;99721.63;1753646;81;21189;-78
2020/12/25 05:11:20;;;;;;;8.23;3.50;;;;;;;8.45;62.53;99720.14;1754366;81;21121;-78
2020/12/25 05:13:50;;;;;;;9.50;3.35;;;;;;;8.50;62.32;99722.69;1754277;81;22274;-76
2020/12/25 05:16:19;;;;;;;7.42;3.17;;;;;;;8.53;62.19;99724.17;1753474;81;21133;-81
2020/12/25 05:18:49;;;;;;;8.95;4.28;;;;;;;8.48;62.16;99717.98;1754189;81;21149;-77
2020/12/25 05:21:19;;;;;;;8.45;4.20;;;;;;;8.46;62.14;99717.33;1753532;81;21171;-79
2020/12/25 05:23:48;;;;;;;10.45;4.97;;;;;;;8.41;62.20;99715.66;1754216;81;21113;-78
2020/12/25 05:26:17;;;;;;;14.60;7.10;;;;;;;8.42;62.21;99719.98;1754348;81;22295;-79
2020/12/25 05:28:47;;;;;;;18.92;9.25;;;;;;;8.49;62.13;99723.66;1754247;81;21133;-76
2020/12/25 05:31:16;;;;;;;21.02;10.10;;;;;;;8.58;61.98;99724.05;1754073;81;21173;-77
2020/12/25 05:33:45;;;;;;;19.60;8.68;;;;;;;8.69;61.75;99726.06;1753932;81;21216;-80
2020/12/25 05:36:14;;;;;;;16.62;8.20;;;;;;;8.73;61.48;99718.89;1691137;80;21180;-77
2020/12/25 05:38:47;;;;;;;13.95;7.12;;;;;;;8.75;61.19;99723.55;1784690;80;21206;-77
2020/12/25 05:41:15;;;;;;;21.80;10.60;;;;;;;8.69;61.00;99726.89;1785159;80;21160;-76
2020/12/25 05:43:51;;;;;;;29.63;12.37;;;;;;;8.63;61.04;99724.39;1785467;80;21096;-79
2020/12/25 05:46:19;;;;;;;26.48;11.75;;;;;;;8.64;61.06;99721.21;1785430;80;21094;-76
2020/12/25 05:48:52;;;;;;;23.27;9.58;;;;;;;8.68;60.99;99720.39;1785623;80;21089;-77
2020/12/25 05:51:22;;;;;;;24.82;9.20;;;;;;;8.67;60.95;99723.53;1784757;80;21364;-76
2020/12/25 05:53:53;;;;;;;16.48;7.20;;;;;;;8.61;60.96;99718.86;1784601;80;21208;-78
2020/12/25 05:56:21;;;;;;;19.57;7.53;;;;;;;8.58;61.00;99728.05;1785002;78;21495;-80
2020/12/25 05:58:49;;;;;;;15.40;6.33;;;;;;;8.61;60.97;99717.02;1784963;80;21163;-79
2020/12/25 06:01:17;;;;;;;12.88;6.50;;;;;;;8.66;60.94;99720.53;1753263;80;21223;-81
2020/12/25 06:03:44;;;;;;;11.30;5.62;;;;;;;8.71;60.88;99716.88;1784869;80;21435;-78
2020/12/25 06:06:14;;;;;;;8.60;4.33;;;;;;;8.78;60.68;99712.56;1785197;80;21223;-79
2020/12/25 06:08:52;;;;;;;10.48;4.15;;;;;;;8.81;60.52;99716.24;1780196;78;21233;-80
2020/12/25 06:11:19;;;;;;;11.65;5.62;;;;;;;8.72;60.56;99725.24;1773985;78;21580;-78
2020/12/25 06:13:49;;;;;;;8.90;3.65;;;;;;;8.66;60.64;99717.03;1752964;80;21145;-78
2020/12/25 06:16:17;;;;;;;4.72;2.98;;;;;;;8.63;60.69;99716.88;1750847;80;22733;-77
2020/12/25 06:19:09;;;;;;;6.35;3.42;;;;;;;8.59;60.79;99715.03;1705232;80;21220;-78
2020/12/25 06:21:59;;;;;;;7.55;4.62;;;;;;;8.60;60.81;99706.52;1743495;80;21161;-79
2020/12/25 06:24:35;;;;;;;6.70;3.50;;;;;;;8.60;60.80;99710.02;1737288;80;21196;-78
2020/12/25 06:27:04;;;;;;;2.85;2.47;;;;;;;8.56;60.82;99710.01;1769872;80;21191;-77
2020/12/25 06:29:33;;;;;;;3.65;2.95;;;;;;;8.47;60.92;99716.83;1766503;80;22618;-77
2020/12/25 06:32:02;;;;;;;5.53;4.22;;;;;;;8.29;61.19;99720.41;1773305;80;21125;-79
2020/12/25 06:34:48;;;;;;;5.58;3.30;;;;;;;8.14;61.49;99709.52;1747496;80;21113;-79
2020/12/25 06:37:16;;;;;;;7.53;3.27;;;;;;;8.09;61.77;99717.17;1732800;82;20987;-78
2020/12/25 06:39:52;;;;;;;9.95;4.58;;;;;;;8.00;61.93;99722.13;1769910;80;21097;-78
2020/12/25 06:42:32;;;;;;;8.05;4.22;;;;;;;7.94;62.12;99720.59;1776142;80;21364;-78
2020/12/25 06:45:00;;;;;;;6.40;3.20;;;;;;;7.84;62.34;99711.37;1763857;80;21117;-79
2020/12/25 06:47:30;;;;;;;4.20;3.10;;;;;;;7.75;62.60;99717.16;1778734;80;20950;-76
2020/12/25 06:49:58;;;;;;;4.15;2.92;;;;;;;7.72;62.77;99719.30;1774377;80;21125;-78
2020/12/25 06:52:31;;;;;;;4.10;3.02;;;;;;;7.71;62.86;99718.97;1771086;80;21097;-78
2020/12/25 06:54:59;;;;;;;6.60;3.17;;;;;;;7.73;62.98;99722.33;1779589;80;21411;-78
2020/12/25 06:57:27;;;;;;;5.30;3.12;;;;;;;7.69;63.09;99718.30;1768430;80;21100;-79
2020/12/25 07:00:02;;;;;;;4.92;2.85;;;;;;;7.66;63.18;99718.11;1773805;80;21225;-77
2020/12/25 07:02:30;;;;;;;11.55;4.62;;;;;;;7.66;63.29;99717.27;1773346;78;21160;-77
2020/12/25 07:05:01;;;;;;;8.15;4.60;;;;;;;7.61;63.44;99717.25;1751512;80;21188;-79
2020/12/25 07:07:33;;;;;;;8.85;5.15;;;;;;;7.60;63.59;99712.08;1746224;80;21343;-78
2020/12/25 07:10:09;;;;;;;7.50;4.60;;;;;;;7.62;63.62;99720.24;1783027;80;21680;-78
2020/12/25 07:12:37;;;;;;;8.15;4.97;;;;;;;7.62;63.70;99718.91;1782379;80;22155;-75
2020/12/25 07:15:07;;;;;;;7.25;5.25;;;;;;;7.66;63.76;99719.94;1782011;80;21204;-76
2020/12/25 07:17:36;;;;;;;9.38;5.90;;;;;;;7.73;63.77;99715.66;1782912;80;21460;-77
2020/12/25 07:20:09;;;;;;;10.88;5.53;;;;;;;7.88;63.67;99728.73;1783153;80;21800;-77
2020/12/25 07:22:37;;;;;;;10.70;5.05;;;;;;;8.01;63.41;99727.80;1770852;80;21165;-77
2020/12/25 07:25:09;;;;;;;9.03;4.80;;;;;;;8.11;63.22;99732.50;1776640;80;21751;-77
2020/12/25 07:27:36;;;;;;;12.63;4.55;;;;;;;8.21;63.05;99734.21;1781866;80;21069;-77
2020/12/25 07:30:06;;;;;;;9.33;5.12;;;;;;;8.34;62.85;99735.93;1764562;80;21077;-78
2020/12/25 07:32:34;;;;;;;13.43;5.95;;;;;;;8.47;62.64;99743.52;1730967;82;21455;-77
2020/12/25 07:35:06;;;;;;;15.08;6.20;;;;;;;8.54;62.42;99746.72;1749504;78;21173;-76
2020/12/25 07:37:34;;;;;;;10.85;5.35;;;;;;;8.59;62.25;99742.23;1764949;80;21494;-80
2020/12/25 07:40:07;;;;;;;12.20;5.78;;;;;;;8.66;62.07;99750.41;1772969;80;21181;-79
2020/12/25 07:42:35;;;;;;;14.58;6.75;;;;;;;8.69;61.97;99744.75;1767836;80;21278;-78
2020/12/25 07:45:03;;;;;;;23.67;10.55;;;;;;;8.77;61.83;99746.11;1742462;78;21998;-78
2020/12/25 07:47:31;;;;;;;32.95;16.17;;;;;;;8.86;61.65;99757.14;1773164;80;21439;-79
2020/12/25 07:50:00;;;;;;;38.10;16.73;;;;;;;8.92;61.45;99753.80;1776042;80;21152;-78
2020/12/25 07:52:28;;;;;;;39.33;18.50;;;;;;;8.97;61.18;99751.97;1767002;80;21200;-79
2020/12/25 07:54:58;;;;;;;39.55;18.20;;;;;;;8.99;61.01;99748.12;1757408;80;21189;-79
2020/12/25 07:57:27;;;;;;;34.58;16.20;;;;;;;9.00;60.84;99755.16;1765552;80;21769;-77
2020/12/25 07:59:55;;;;;;;34.40;16.20;;;;;;;9.03;60.75;99764.15;1772248;80;21172;-78
2020/12/25 08:02:23;;;;;;;27.55;14.43;;;;;;;9.10;60.58;99773.19;1773849;78;21181;-78
2020/12/25 08:04:51;;;;;;;19.82;11.57;;;;;;;9.13;60.45;99766.19;1760194;80;21161;-79
2020/12/25 08:07:19;;;;;;;18.15;10.85;;;;;;;9.19;60.30;99774.54;1773366;78;21540;-79
2020/12/25 08:09:46;;;;;;;16.60;10.70;;;;;;;9.19;60.18;99769.20;1767802;78;21696;-76
2020/12/25 08:12:16;;;;;;;18.73;11.15;;;;;;;9.20;60.04;99765.52;1761734;80;21150;-78
2020/12/25 08:14:44;;;;;;;19.45;10.65;;;;;;;9.22;59.95;99768.37;1750033;80;21118;-78
2020/12/25 08:17:12;;;;;;;33.48;17.30;;;;;;;9.24;59.86;99771.70;1772855;80;21101;-82
2020/12/25 08:19:39;;;;;;;42.58;20.30;;;;;;;9.27;59.75;99775.38;1742184;80;21079;-78
2020/12/25 08:22:09;;;;;;;48.48;22.45;;;;;;;9.28;59.70;99777.55;1774819;79;22225;-77
2020/12/25 08:24:36;;;;;;;49.30;22.85;;;;;;;9.32;59.56;99782.90;1785100;80;21140;-80
2020/12/25 08:27:04;;;;;;;33.60;17.90;;;;;;;9.32;59.51;99780.23;1763267;78;21106;-76
2020/12/25 08:29:32;;;;;;;48.28;21.97;;;;;;;9.33;59.44;99780.55;1800200;78;21117;-78
2020/12/25 08:32:09;;;;;;;45.50;21.68;;;;;;;9.33;59.43;99781.38;1817586;78;21125;-76
2020/12/25 08:34:39;;;;;;;57.78;25.52;;;;;;;9.34;59.38;99779.04;1797690;78;21347;-77
2020/12/25 08:37:09;;;;;;;69.30;34.05;;;;;;;9.37;59.30;99777.38;1766274;80;21140;-78
2020/12/25 08:39:36;;;;;;;58.23;28.30;;;;;;;9.39;59.25;99774.53;1778620;78;21129;-78
2020/12/25 08:42:09;;;;;;;43.23;23.25;;;;;;;9.42;59.20;99765.36;1716720;82;21261;-80
2020/12/25 08:44:33;;;;;;;53.83;25.37;;;;;;;9.43;59.14;99765.68;1769265;78;21219;-77
2020/12/25 08:47:10;;;;;;;43.58;22.85;;;;;;;9.42;59.15;99772.04;1780997;78;21192;-79
2020/12/25 08:49:40;;;;;;;35.10;18.92;;;;;;;9.42;59.16;99774.71;1761385;80;21200;-76
2020/12/25 08:52:22;;;;;;;39.00;20.00;;;;;;;9.42;59.17;99779.55;1769431;80;21497;-80
2020/12/25 08:54:59;;;;;;;36.20;22.10;;;;;;;9.44;59.20;99781.55;1766456;78;21748;-77
2020/12/25 08:57:33;;;;;;;41.08;24.50;;;;;;;9.46;59.20;99782.23;1761002;80;27184;-77
2020/12/25 09:00:05;;;;;;;22.30;14.53;;;;;;;9.49;59.18;99771.17;1768299;80;21357;-77
2020/12/25 09:02:33;;;;;;;16.37;11.33;;;;;;;9.50;59.13;99767.53;1765451;80;20965;-79
2020/12/25 09:05:02;;;;;;;13.48;9.50;;;;;;;9.52;59.09;99762.83;1746835;82;21192;-77
2020/12/25 09:07:30;;;;;;;15.10;8.95;;;;;;;9.53;59.09;99756.47;1750971;80;21224;-79
2020/12/25 09:09:58;;;;;;;16.32;11.12;;;;;;;9.53;59.04;99747.12;1771681;79;21237;-78
2020/12/25 09:12:27;;;;;;;22.13;15.78;;;;;;;9.55;59.06;99753.66;1775807;80;21263;-77
2020/12/25 09:14:56;;;;;;;25.50;14.10;;;;;;;9.59;59.06;99758.49;1765284;79;21260;-79
2020/12/25 09:17:24;;;;;;;21.23;12.65;;;;;;;9.60;59.11;99770.85;1770521;80;21628;-79
2020/12/25 09:19:52;;;;;;;16.32;10.90;;;;;;;9.60;59.11;99768.17;1777329;78;21491;-77
2020/12/25 09:22:19;;;;;;;16.37;9.75;;;;;;;9.61;59.11;99765.83;1769394;80;21895;-78
2020/12/25 09:24:47;;;;;;;13.80;6.95;;;;;;;9.61;59.12;99761.82;1771373;80;21783;-78
2020/12/25 09:27:15;;;;;;;15.75;10.05;;;;;;;9.64;59.14;99765.50;1765401;80;21644;-77
2020/12/25 09:29:43;;;;;;;13.80;8.93;;;;;;;9.64;59.17;99764.67;1770074;80;21219;-76
2020/12/25 09:32:12;;;;;;;19.02;11.15;;;;;;;9.67;59.21;99772.33;1775908;78;21225;-77
2020/12/25 09:34:41;;;;;;;19.00;11.78;;;;;;;9.69;59.22;99762.83;1764222;80;21141;-76
2020/12/25 09:37:09;;;;;;;16.42;10.53;;;;;;;9.73;59.18;99762.83;1771599;80;21855;-78
2020/12/25 09:39:39;;;;;;;16.75;10.35;;;;;;;9.75;59.12;99760.80;1770666;80;21208;-77
2020/12/25 09:42:07;;;;;;;22.27;12.25;;;;;;;9.74;59.09;99759.14;1767180;80;21400;-77
2020/12/25 09:44:36;;;;;;;20.60;10.95;;;;;;;9.74;59.11;99754.62;1760323;80;21179;-77
2020/12/25 09:47:04;;;;;;;20.90;12.15;;;;;;;9.78;59.11;99762.64;1741372;82;21218;-78
2020/12/25 09:49:32;;;;;;;21.73;13.50;;;;;;;9.80;59.13;99765.97;1740703;82;21254;-78
2020/12/25 09:52:04;;;;;;;19.45;12.58;;;;;;;9.81;59.09;99758.77;1756548;78;21196;-77
2020/12/25 09:54:34;;;;;;;20.30;12.23;;;;;;;9.83;59.06;99760.79;1791648;78;21593;-77
2020/12/25 09:57:04;;;;;;;21.33;11.95;;;;;;;9.82;59.03;99764.48;1769275;81;21157;-78
2020/12/25 09:59:32;;;;;;;19.15;10.75;;;;;;;9.83;59.02;99771.49;1769771;81;21427;-77
2020/12/25 10:02:07;;;;;;;19.30;9.93;;;;;;;9.81;58.99;99764.98;1769177;81;21217;-78
2020/12/25 10:04:35;;;;;;;23.80;12.23;;;;;;;9.81;59.05;99762.78;1795746;78;21323;-77
2020/12/25 10:07:04;;;;;;;26.25;12.20;;;;;;;9.85;59.03;99764.12;1814659;78;21171;-77
2020/12/25 10:09:31;;;;;;;30.72;15.28;;;;;;;9.88;59.01;99761.11;1785771;78;21172;-76
2020/12/25 10:11:59;;;;;;;34.92;13.85;;;;;;;9.90;58.98;99757.75;1782946;80;21251;-77
2020/12/25 10:14:28;;;;;;;31.62;15.40;;;;;;;9.92;58.93;99755.75;1797605;78;21324;-77
2020/12/25 10:16:56;;;;;;;30.75;14.98;;;;;;;9.93;58.90;99761.42;1749095;78;21133;-76
2020/12/25 10:19:24;;;;;;;27.70;13.13;;;;;;;9.93;58.86;99765.95;1768012;80;21114;-78
2020/12/25 10:21:51;;;;;;;29.60;13.98;;;;;;;9.92;58.89;99767.80;1779571;80;21177;-77
2020/12/25 10:24:19;;;;;;;26.65;13.70;;;;;;;9.91;58.94;99768.80;1807789;78;21177;-80
2020/12/25 10:26:48;;;;;;;29.30;13.13;;;;;;;9.92;58.95;99773.14;1815759;78;21374;-78
2020/12/25 10:29:16;;;;;;;28.77;13.28;;;;;;;9.95;58.87;99774.15;1817643;78;21121;-77
2020/12/25 10:31:50;;;;;;;40.67;17.05;;;;;;;9.93;58.89;99771.30;1814301;78;21204;-77
2020/12/25 10:34:19;;;;;;;35.30;17.55;;;;;;;9.94;58.90;99773.80;1776381;78;21517;-78
2020/12/25 10:36:48;;;;;;;47.67;24.52;;;;;;;9.93;59.01;99765.95;1787272;78;21651;-77
2020/12/25 10:39:15;;;;;;;55.23;26.97;;;;;;;9.91;59.02;99758.94;1802326;78;21356;-79
2020/12/25 10:41:43;;;;;;;59.25;29.48;;;;;;;9.93;59.09;99756.08;1815691;78;21046;-78
2020/12/25 10:44:12;;;;;;;52.98;25.65;;;;;;;9.96;59.10;99767.78;1791854;78;21460;-78
2020/12/25 10:46:40;;;;;;;48.78;25.40;;;;;;;9.96;59.08;99766.45;1775023;80;21092;-79
2020/12/25 10:49:08;;;;;;;45.17;21.73;;;;;;;9.98;59.08;99775.13;1769152;78;21094;-78
2020/12/25 10:51:35;;;;;;;52.27;21.12;;;;;;;9.99;59.08;99775.95;1773070;80;21372;-76
2020/12/25 10:54:07;;;;;;;34.98;17.42;;;;;;;10.01;59.10;99777.97;1768136;79;21588;-77
2020/12/25 10:56:35;;;;;;;32.88;18.48;;;;;;;10.05;59.09;99778.80;1772924;79;21164;-79
2020/12/25 10:59:04;;;;;;;36.58;21.73;;;;;;;10.08;59.03;99774.92;1767325;80;21634;-77
2020/12/25 11:01:33;;;;;;;44.25;25.92;;;;;;;10.09;58.97;99768.59;1768597;80;21568;-78
2020/12/25 11:04:35;;;;;;;54.80;32.55;;;;;;;10.12;58.94;99771.73;1774935;80;21408;-79
2020/12/25 11:07:05;;;;;;;66.53;37.95;;;;;;;10.13;58.92;99772.59;1750899;80;21426;-78
2020/12/25 11:09:36;;;;;;;72.05;38.40;;;;;;;10.13;58.94;99780.63;1768112;80;21077;-78
2020/12/25 11:12:23;;;;;;;69.30;37.90;;;;;;;10.12;59.02;99785.11;1771706;80;21101;-77
2020/12/25 11:14:51;;;;;;;67.50;38.02;;;;;;;10.13;59.04;99784.13;1773393;80;21129;-80
2020/12/25 11:17:18;;;;;;;54.15;31.10;;;;;;;10.16;59.04;99785.61;1768683;80;21372;-79
2020/12/25 11:19:46;;;;;;;54.35;27.50;;;;;;;10.19;58.99;99787.13;1769519;80;21133;-79
2020/12/25 11:22:32;;;;;;;51.42;26.37;;;;;;;10.19;58.99;99775.08;1755067;78;21747;-78
2020/12/25 11:25:00;;;;;;;47.90;24.02;;;;;;;10.19;59.00;99785.78;1785482;78;21229;-82
2020/12/25 11:27:27;;;;;;;41.02;21.33;;;;;;;10.19;59.02;99795.98;1768772;80;21201;-79
2020/12/25 11:29:55;;;;;;;40.20;22.50;;;;;;;10.20;59.02;99800.33;1763630;80;21942;-78
2020/12/25 11:32:23;;;;;;;38.58;21.93;;;;;;;10.22;59.07;99805.49;1764301;80;21205;-79
2020/12/25 11:34:51;;;;;;;43.02;23.40;;;;;;;10.24;59.05;99806.17;1778352;80;21157;-82
2020/12/25 11:37:18;;;;;;;40.52;23.07;;;;;;;10.25;59.08;99806.53;1772419;80;21375;-79
2020/12/25 11:39:46;;;;;;;40.25;21.90;;;;;;;10.26;59.11;99809.02;1767895;80;21642;-79
2020/12/25 11:42:15;;;;;;;35.98;20.65;;;;;;;10.27;59.05;99815.24;1770660;80;22254;-79
2020/12/25 11:44:43;;;;;;;31.35;17.77;;;;;;;10.27;59.09;99812.56;1764179;78;21253;-79